Portada
METAR-TAF:

METAR-TAF

Aeropuertos :

Abu Musa, Irán

latitud: 25-52-33N, longitud: 055-02-01E, altitud: 7 m

Observación

El informe se hizo hace 14 minutos, a las 04:00 UTC
Viento 8 kt del este-noreste
Temperatura 23°C
Humedad 78%
Presión 1014 hPa
Visibilidad: 5000 m
calima

METAR: OIBA 250400Z 06008KT 5000 HZ NSC 23/19 Q1014

Hora: 07:44 (04:14 UTC)


TAF: falta

Observaciones y pronósticos meteorológicos de más de 4000 aeropuertos (mensajes METAR y TAF).

Los puntos amarillos y rojos representan las estaciones disponibles.

Ponga el ratón en el punto deseado para ver el nombre de la estación.

Haga clic para ver las observaciones y los pronósticos meteorológicos.

Para cambiar el mapa : haga clic en los botones verdes con una cruz de color negro para hacer un zoom, en el botón verde con un guión para alejar o en las flechas verdes para mapas adyacentes.


METAR-TAF: